sensor_id;sensor_type;location;lat;lon;timestamp;pressure;altitude;pressure_sealevel;temperature
64175;BMP280;50469;50.438;-119.202;2023-07-24T00:01:56;96415.91;;;35.30
64175;BMP280;50469;50.438;-119.202;2023-07-24T00:04:24;96413.72;;;35.29
64175;BMP280;50469;50.438;-119.202;2023-07-24T00:06:55;96405.06;;;34.92
64175;BMP280;50469;50.438;-119.202;2023-07-24T00:09:24;96402.72;;;35.10
64175;BMP280;50469;50.438;-119.202;2023-07-24T00:11:52;96396.81;;;35.37
64175;BMP280;50469;50.438;-119.202;2023-07-24T00:14:20;96395.31;;;35.24
64175;BMP280;50469;50.438;-119.202;2023-07-24T00:16:51;96394.56;;;35.02
64175;BMP280;50469;50.438;-119.202;2023-07-24T00:19:19;96391.78;;;35.23
64175;BMP280;50469;50.438;-119.202;2023-07-24T00:21:50;96385.50;;;35.01
64175;BMP280;50469;50.438;-119.202;2023-07-24T00:24:18;96381.69;;;35.06
64175;BMP280;50469;50.438;-119.202;2023-07-24T00:26:46;96384.97;;;35.15
64175;BMP280;50469;50.438;-119.202;2023-07-24T00:29:17;96369.91;;;35.08
64175;BMP280;50469;50.438;-119.202;2023-07-24T00:31:45;96372.25;;;34.90
64175;BMP280;50469;50.438;-119.202;2023-07-24T00:34:13;96376.19;;;34.97
64175;BMP280;50469;50.438;-119.202;2023-07-24T00:36:41;96361.66;;;34.98
64175;BMP280;50469;50.438;-119.202;2023-07-24T00:39:09;96371.84;;;35.05
64175;BMP280;50469;50.438;-119.202;2023-07-24T00:41:37;96355.97;;;35.29
64175;BMP280;50469;50.438;-119.202;2023-07-24T00:44:05;96364.88;;;35.04
64175;BMP280;50469;50.438;-119.202;2023-07-24T00:46:35;96361.75;;;34.89
64175;BMP280;50469;50.438;-119.202;2023-07-24T00:49:04;96362.91;;;35.07
64175;BMP280;50469;50.438;-119.202;2023-07-24T00:51:33;96355.19;;;34.84
64175;BMP280;50469;50.438;-119.202;2023-07-24T00:54:07;96346.09;;;35.05
64175;BMP280;50469;50.438;-119.202;2023-07-24T00:56:37;96345.38;;;34.83
64175;BMP280;50469;50.438;-119.202;2023-07-24T00:59:05;96359.41;;;34.64
64175;BMP280;50469;50.438;-119.202;2023-07-24T01:01:33;96341.00;;;34.80
64175;BMP280;50469;50.438;-119.202;2023-07-24T01:04:05;96346.06;;;34.72
64175;BMP280;50469;50.438;-119.202;2023-07-24T01:06:34;96337.44;;;34.68
64175;BMP280;50469;50.438;-119.202;2023-07-24T01:09:02;96337.81;;;34.53
64175;BMP280;50469;50.438;-119.202;2023-07-24T01:11:39;96339.06;;;34.61
64175;BMP280;50469;50.438;-119.202;2023-07-24T01:16:47;96329.56;;;34.64
64175;BMP280;50469;50.438;-119.202;2023-07-24T01:19:40;96324.09;;;34.45
64175;BMP280;50469;50.438;-119.202;2023-07-24T01:24:52;96323.44;;;34.35
64175;BMP280;50469;50.438;-119.202;2023-07-24T01:27:30;96329.91;;;34.28
64175;BMP280;50469;50.438;-119.202;2023-07-24T01:29:59;96321.13;;;34.31
64175;BMP280;50469;50.438;-119.202;2023-07-24T01:32:27;96315.00;;;34.23
64175;BMP280;50469;50.438;-119.202;2023-07-24T01:34:56;96310.22;;;34.14
64175;BMP280;50469;50.438;-119.202;2023-07-24T01:37:25;96313.16;;;34.06
64175;BMP280;50469;50.438;-119.202;2023-07-24T01:39:55;96314.50;;;34.05
64175;BMP280;50469;50.438;-119.202;2023-07-24T01:42:25;96309.00;;;33.96
64175;BMP280;50469;50.438;-119.202;2023-07-24T01:44:54;96309.78;;;33.77
64175;BMP280;50469;50.438;-119.202;2023-07-24T01:47:25;96311.66;;;33.84
64175;BMP280;50469;50.438;-119.202;2023-07-24T01:49:56;96306.97;;;33.86
64175;BMP280;50469;50.438;-119.202;2023-07-24T01:52:24;96305.09;;;33.79
64175;BMP280;50469;50.438;-119.202;2023-07-24T01:54:52;96308.47;;;33.68
64175;BMP280;50469;50.438;-119.202;2023-07-24T01:57:20;96311.63;;;33.43
64175;BMP280;50469;50.438;-119.202;2023-07-24T01:59:48;96304.91;;;33.27
64175;BMP280;50469;50.438;-119.202;2023-07-24T02:02:16;96309.00;;;33.16
64175;BMP280;50469;50.438;-119.202;2023-07-24T02:04:46;96304.16;;;33.26
64175;BMP280;50469;50.438;-119.202;2023-07-24T02:07:17;96302.25;;;33.00
64175;BMP280;50469;50.438;-119.202;2023-07-24T02:09:45;96297.03;;;32.85
64175;BMP280;50469;50.438;-119.202;2023-07-24T02:12:13;96300.84;;;32.99
64175;BMP280;50469;50.438;-119.202;2023-07-24T02:14:41;96298.94;;;33.01
64175;BMP280;50469;50.438;-119.202;2023-07-24T02:17:09;96296.44;;;32.96
64175;BMP280;50469;50.438;-119.202;2023-07-24T02:19:37;96299.19;;;32.67
64175;BMP280;50469;50.438;-119.202;2023-07-24T02:22:08;96300.31;;;32.54
64175;BMP280;50469;50.438;-119.202;2023-07-24T02:24:36;96294.63;;;32.42
64175;BMP280;50469;50.438;-119.202;2023-07-24T02:27:12;96294.03;;;32.44
64175;BMP280;50469;50.438;-119.202;2023-07-24T02:29:40;96289.47;;;32.29
64175;BMP280;50469;50.438;-119.202;2023-07-24T02:32:08;96294.09;;;32.17
64175;BMP280;50469;50.438;-119.202;2023-07-24T02:34:36;96295.13;;;32.21
64175;BMP280;50469;50.438;-119.202;2023-07-24T02:37:07;96294.47;;;31.77
64175;BMP280;50469;50.438;-119.202;2023-07-24T02:39:35;96292.59;;;31.52
64175;BMP280;50469;50.438;-119.202;2023-07-24T02:42:03;96293.53;;;31.64
64175;BMP280;50469;50.438;-119.202;2023-07-24T02:44:36;96297.34;;;31.69
64175;BMP280;50469;50.438;-119.202;2023-07-24T02:47:04;96301.28;;;31.66
64175;BMP280;50469;50.438;-119.202;2023-07-24T02:49:33;96294.38;;;31.57
64175;BMP280;50469;50.438;-119.202;2023-07-24T02:52:01;96295.00;;;31.48
64175;BMP280;50469;50.438;-119.202;2023-07-24T02:54:29;96293.06;;;31.14
64175;BMP280;50469;50.438;-119.202;2023-07-24T02:56:57;96301.75;;;31.10
64175;BMP280;50469;50.438;-119.202;2023-07-24T02:59:28;96300.38;;;31.02
64175;BMP280;50469;50.438;-119.202;2023-07-24T03:01:57;96306.59;;;30.85
64175;BMP280;50469;50.438;-119.202;2023-07-24T03:04:27;96298.94;;;30.76
64175;BMP280;50469;50.438;-119.202;2023-07-24T03:06:55;96303.16;;;30.59
64175;BMP280;50469;50.438;-119.202;2023-07-24T03:09:26;96308.50;;;30.32
64175;BMP280;50469;50.438;-119.202;2023-07-24T03:11:54;96308.72;;;29.62
64175;BMP280;50469;50.438;-119.202;2023-07-24T03:14:22;96302.09;;;29.01
64175;BMP280;50469;50.438;-119.202;2023-07-24T03:16:52;96310.19;;;28.92
64175;BMP280;50469;50.438;-119.202;2023-07-24T03:19:21;96309.81;;;28.95
64175;BMP280;50469;50.438;-119.202;2023-07-24T03:21:49;96309.81;;;28.72
64175;BMP280;50469;50.438;-119.202;2023-07-24T03:24:17;96313.44;;;28.21
64175;BMP280;50469;50.438;-119.202;2023-07-24T03:26:45;96311.03;;;27.66
64175;BMP280;50469;50.438;-119.202;2023-07-24T03:29:16;96312.91;;;27.71
64175;BMP280;50469;50.438;-119.202;2023-07-24T03:31:48;96317.78;;;27.58
64175;BMP280;50469;50.438;-119.202;2023-07-24T03:34:19;96326.59;;;27.56
64175;BMP280;50469;50.438;-119.202;2023-07-24T03:36:49;96331.00;;;27.59
64175;BMP280;50469;50.438;-119.202;2023-07-24T03:39:22;96334.91;;;27.71
64175;BMP280;50469;50.438;-119.202;2023-07-24T03:41:51;96336.22;;;27.42
64175;BMP280;50469;50.438;-119.202;2023-07-24T03:44:19;96338.44;;;27.15
64175;BMP280;50469;50.438;-119.202;2023-07-24T03:46:49;96346.38;;;27.26
64175;BMP280;50469;50.438;-119.202;2023-07-24T03:49:20;96351.47;;;27.22
64175;BMP280;50469;50.438;-119.202;2023-07-24T03:51:48;96342.28;;;27.48
64175;BMP280;50469;50.438;-119.202;2023-07-24T03:54:16;96350.84;;;27.65
64175;BMP280;50469;50.438;-119.202;2023-07-24T03:56:44;96348.28;;;27.39
64175;BMP280;50469;50.438;-119.202;2023-07-24T03:59:12;96368.06;;;27.37
64175;BMP280;50469;50.438;-119.202;2023-07-24T04:01:40;96373.19;;;27.69
64175;BMP280;50469;50.438;-119.202;2023-07-24T04:04:09;96374.19;;;27.43
64175;BMP280;50469;50.438;-119.202;2023-07-24T04:06:37;96382.66;;;27.89
64175;BMP280;50469;50.438;-119.202;2023-07-24T04:09:05;96386.56;;;27.94
64175;BMP280;50469;50.438;-119.202;2023-07-24T04:11:36;96371.53;;;28.03
64175;BMP280;50469;50.438;-119.202;2023-07-24T04:14:04;96388.44;;;28.14
64175;BMP280;50469;50.438;-119.202;2023-07-24T04:16:32;96395.69;;;28.48
64175;BMP280;50469;50.438;-119.202;2023-07-24T04:19:04;96395.75;;;29.40
64175;BMP280;50469;50.438;-119.202;2023-07-24T04:21:34;96404.00;;;29.32
64175;BMP280;50469;50.438;-119.202;2023-07-24T04:24:08;96406.81;;;28.19
64175;BMP280;50469;50.438;-119.202;2023-07-24T04:26:38;96401.31;;;28.19
64175;BMP280;50469;50.438;-119.202;2023-07-24T04:29:09;96407.03;;;27.28
64175;BMP280;50469;50.438;-119.202;2023-07-24T04:31:37;96412.91;;;26.70
64175;BMP280;50469;50.438;-119.202;2023-07-24T04:34:08;96407.53;;;26.98
64175;BMP280;50469;50.438;-119.202;2023-07-24T04:36:41;96411.59;;;27.83
64175;BMP280;50469;50.438;-119.202;2023-07-24T04:39:10;96411.31;;;27.94
64175;BMP280;50469;50.438;-119.202;2023-07-24T04:41:41;96422.03;;;27.48
64175;BMP280;50469;50.438;-119.202;2023-07-24T04:44:09;96426.03;;;26.29
64175;BMP280;50469;50.438;-119.202;2023-07-24T04:46:37;96423.56;;;26.39
64175;BMP280;50469;50.438;-119.202;2023-07-24T04:49:05;96422.06;;;27.06
64175;BMP280;50469;50.438;-119.202;2023-07-24T04:51:33;96427.22;;;27.10
64175;BMP280;50469;50.438;-119.202;2023-07-24T04:54:05;96434.41;;;27.13
64175;BMP280;50469;50.438;-119.202;2023-07-24T04:56:33;96432.69;;;25.94
64175;BMP280;50469;50.438;-119.202;2023-07-24T04:59:04;96447.75;;;25.29
64175;BMP280;50469;50.438;-119.202;2023-07-24T05:01:35;96442.50;;;25.31
64175;BMP280;50469;50.438;-119.202;2023-07-24T05:04:03;96438.72;;;25.93
64175;BMP280;50469;50.438;-119.202;2023-07-24T05:06:34;96441.28;;;25.45
64175;BMP280;50469;50.438;-119.202;2023-07-24T05:09:04;96438.31;;;25.11
64175;BMP280;50469;50.438;-119.202;2023-07-24T05:11:32;96448.19;;;24.44
64175;BMP280;50469;50.438;-119.202;2023-07-24T05:14:00;96426.63;;;24.59
64175;BMP280;50469;50.438;-119.202;2023-07-24T05:16:34;96431.09;;;25.27
64175;BMP280;50469;50.438;-119.202;2023-07-24T05:19:02;96437.69;;;25.50
64175;BMP280;50469;50.438;-119.202;2023-07-24T05:21:33;96437.22;;;24.25
64175;BMP280;50469;50.438;-119.202;2023-07-24T05:24:01;96442.06;;;24.76
64175;BMP280;50469;50.438;-119.202;2023-07-24T05:26:29;96449.13;;;25.22
64175;BMP280;50469;50.438;-119.202;2023-07-24T05:28:58;96442.28;;;24.78
64175;BMP280;50469;50.438;-119.202;2023-07-24T05:31:26;96440.25;;;25.16
64175;BMP280;50469;50.438;-119.202;2023-07-24T05:33:54;96448.31;;;25.08
64175;BMP280;50469;50.438;-119.202;2023-07-24T05:36:22;96454.09;;;25.05
64175;BMP280;50469;50.438;-119.202;2023-07-24T05:38:52;96441.69;;;25.04
64175;BMP280;50469;50.438;-119.202;2023-07-24T05:41:20;96458.44;;;23.95
64175;BMP280;50469;50.438;-119.202;2023-07-24T05:43:48;96447.63;;;25.53
64175;BMP280;50469;50.438;-119.202;2023-07-24T05:46:16;96444.34;;;25.42
64175;BMP280;50469;50.438;-119.202;2023-07-24T05:48:44;96457.59;;;24.86
64175;BMP280;50469;50.438;-119.202;2023-07-24T05:51:12;96462.78;;;24.52
64175;BMP280;50469;50.438;-119.202;2023-07-24T05:53:40;96458.34;;;24.00
64175;BMP280;50469;50.438;-119.202;2023-07-24T05:56:08;96453.53;;;23.27
64175;BMP280;50469;50.438;-119.202;2023-07-24T05:58:36;96466.47;;;23.87
64175;BMP280;50469;50.438;-119.202;2023-07-24T06:01:04;96469.72;;;24.10
64175;BMP280;50469;50.438;-119.202;2023-07-24T06:03:35;96460.84;;;23.44
64175;BMP280;50469;50.438;-119.202;2023-07-24T06:06:06;96467.09;;;23.74
64175;BMP280;50469;50.438;-119.202;2023-07-24T06:08:37;96473.78;;;24.28
64175;BMP280;50469;50.438;-119.202;2023-07-24T06:11:05;96474.19;;;22.70
64175;BMP280;50469;50.438;-119.202;2023-07-24T06:13:33;96475.75;;;22.60
64175;BMP280;50469;50.438;-119.202;2023-07-24T06:16:01;96485.34;;;22.78
64175;BMP280;50469;50.438;-119.202;2023-07-24T06:18:33;96483.34;;;23.25
64175;BMP280;50469;50.438;-119.202;2023-07-24T06:21:03;96486.22;;;23.44
64175;BMP280;50469;50.438;-119.202;2023-07-24T06:23:31;96479.16;;;23.54
64175;BMP280;50469;50.438;-119.202;2023-07-24T06:26:01;96488.41;;;23.46
64175;BMP280;50469;50.438;-119.202;2023-07-24T06:28:29;96487.31;;;23.24
64175;BMP280;50469;50.438;-119.202;2023-07-24T06:30:58;96481.94;;;23.49
64175;BMP280;50469;50.438;-119.202;2023-07-24T06:33:26;96486.47;;;23.41
64175;BMP280;50469;50.438;-119.202;2023-07-24T06:35:54;96481.00;;;23.05
64175;BMP280;50469;50.438;-119.202;2023-07-24T06:38:27;96484.94;;;23.04
64175;BMP280;50469;50.438;-119.202;2023-07-24T06:40:57;96492.50;;;22.86
64175;BMP280;50469;50.438;-119.202;2023-07-24T06:43:25;96496.47;;;22.85
64175;BMP280;50469;50.438;-119.202;2023-07-24T06:45:56;96494.88;;;23.07
64175;BMP280;50469;50.438;-119.202;2023-07-24T06:48:24;96501.41;;;22.87
64175;BMP280;50469;50.438;-119.202;2023-07-24T06:50:52;96507.47;;;22.69
64175;BMP280;50469;50.438;-119.202;2023-07-24T06:53:23;96511.97;;;22.44
64175;BMP280;50469;50.438;-119.202;2023-07-24T06:55:54;96500.25;;;22.65
64175;BMP280;50469;50.438;-119.202;2023-07-24T06:58:22;96511.28;;;22.21
64175;BMP280;50469;50.438;-119.202;2023-07-24T07:00:50;96511.03;;;22.19
64175;BMP280;50469;50.438;-119.202;2023-07-24T07:03:21;96513.28;;;21.86
64175;BMP280;50469;50.438;-119.202;2023-07-24T07:05:51;96524.91;;;21.59
64175;BMP280;50469;50.438;-119.202;2023-07-24T07:08:19;96527.66;;;22.09
64175;BMP280;50469;50.438;-119.202;2023-07-24T07:10:55;96535.34;;;22.05
64175;BMP280;50469;50.438;-119.202;2023-07-24T07:13:23;96524.69;;;21.85
64175;BMP280;50469;50.438;-119.202;2023-07-24T07:15:56;96525.16;;;21.95
64175;BMP280;50469;50.438;-119.202;2023-07-24T07:18:24;96527.91;;;22.00
64175;BMP280;50469;50.438;-119.202;2023-07-24T07:20:53;96530.28;;;19.96
64175;BMP280;50469;50.438;-119.202;2023-07-24T07:23:24;96523.69;;;20.40
64175;BMP280;50469;50.438;-119.202;2023-07-24T07:25:52;96529.25;;;20.57
64175;BMP280;50469;50.438;-119.202;2023-07-24T07:28:20;96530.78;;;19.95
64175;BMP280;50469;50.438;-119.202;2023-07-24T07:30:48;96527.44;;;19.80
64175;BMP280;50469;50.438;-119.202;2023-07-24T07:33:17;96514.75;;;19.97
64175;BMP280;50469;50.438;-119.202;2023-07-24T07:35:48;96520.72;;;19.29
64175;BMP280;50469;50.438;-119.202;2023-07-24T07:38:21;96529.06;;;19.71
64175;BMP280;50469;50.438;-119.202;2023-07-24T07:40:52;96534.72;;;19.68
64175;BMP280;50469;50.438;-119.202;2023-07-24T07:43:20;96533.72;;;19.65
64175;BMP280;50469;50.438;-119.202;2023-07-24T07:45:48;96529.28;;;19.68
64175;BMP280;50469;50.438;-119.202;2023-07-24T07:48:19;96535.97;;;19.46
64175;BMP280;50469;50.438;-119.202;2023-07-24T07:50:53;96542.75;;;19.57
64175;BMP280;50469;50.438;-119.202;2023-07-24T07:53:21;96547.81;;;19.23
64175;BMP280;50469;50.438;-119.202;2023-07-24T07:55:58;96544.78;;;19.41
64175;BMP280;50469;50.438;-119.202;2023-07-24T07:58:30;96543.88;;;20.02
64175;BMP280;50469;50.438;-119.202;2023-07-24T08:01:02;96541.06;;;20.17
64175;BMP280;50469;50.438;-119.202;2023-07-24T08:03:36;96558.72;;;18.88
64175;BMP280;50469;50.438;-119.202;2023-07-24T08:06:06;96558.28;;;18.60
64175;BMP280;50469;50.438;-119.202;2023-07-24T08:08:37;96557.75;;;18.11
64175;BMP280;50469;50.438;-119.202;2023-07-24T08:11:06;96555.53;;;18.39
64175;BMP280;50469;50.438;-119.202;2023-07-24T08:13:34;96562.22;;;18.59
64175;BMP280;50469;50.438;-119.202;2023-07-24T08:16:03;96558.88;;;18.34
64175;BMP280;50469;50.438;-119.202;2023-07-24T08:18:31;96564.19;;;18.43
64175;BMP280;50469;50.438;-119.202;2023-07-24T08:20:59;96559.72;;;18.75
64175;BMP280;50469;50.438;-119.202;2023-07-24T08:23:27;96551.84;;;18.92
64175;BMP280;50469;50.438;-119.202;2023-07-24T08:26:00;96553.47;;;18.49
64175;BMP280;50469;50.438;-119.202;2023-07-24T08:28:33;96568.06;;;18.22
64175;BMP280;50469;50.438;-119.202;2023-07-24T08:31:06;96570.00;;;18.06
64175;BMP280;50469;50.438;-119.202;2023-07-24T08:33:34;96568.59;;;18.11
64175;BMP280;50469;50.438;-119.202;2023-07-24T08:36:07;96567.09;;;18.54
64175;BMP280;50469;50.438;-119.202;2023-07-24T08:38:39;96568.88;;;18.43
64175;BMP280;50469;50.438;-119.202;2023-07-24T08:41:12;96567.25;;;18.66
64175;BMP280;50469;50.438;-119.202;2023-07-24T08:43:42;96571.47;;;18.52
64175;BMP280;50469;50.438;-119.202;2023-07-24T08:46:13;96572.91;;;18.03
64175;BMP280;50469;50.438;-119.202;2023-07-24T08:48:44;96569.16;;;18.00
64175;BMP280;50469;50.438;-119.202;2023-07-24T08:51:15;96571.81;;;17.32
64175;BMP280;50469;50.438;-119.202;2023-07-24T08:53:43;96572.78;;;17.20
64175;BMP280;50469;50.438;-119.202;2023-07-24T08:56:12;96576.69;;;17.81
64175;BMP280;50469;50.438;-119.202;2023-07-24T08:58:40;96571.22;;;17.91
64175;BMP280;50469;50.438;-119.202;2023-07-24T09:01:09;96576.50;;;16.65
64175;BMP280;50469;50.438;-119.202;2023-07-24T09:03:40;96575.50;;;17.44
64175;BMP280;50469;50.438;-119.202;2023-07-24T09:06:08;96564.13;;;17.93
64175;BMP280;50469;50.438;-119.202;2023-07-24T09:11:13;96562.41;;;17.42
64175;BMP280;50469;50.438;-119.202;2023-07-24T09:13:45;96569.81;;;17.18
64175;BMP280;50469;50.438;-119.202;2023-07-24T09:16:25;96567.84;;;17.42
64175;BMP280;50469;50.438;-119.202;2023-07-24T09:18:55;96575.28;;;17.08
64175;BMP280;50469;50.438;-119.202;2023-07-24T09:21:30;96577.97;;;16.75
64175;BMP280;50469;50.438;-119.202;2023-07-24T09:24:19;96567.44;;;17.10
64175;BMP280;50469;50.438;-119.202;2023-07-24T09:26:51;96574.94;;;17.93
64175;BMP280;50469;50.438;-119.202;2023-07-24T09:29:31;96577.00;;;16.45
64175;BMP280;50469;50.438;-119.202;2023-07-24T09:32:00;96571.41;;;16.67
64175;BMP280;50469;50.438;-119.202;2023-07-24T09:34:31;96571.81;;;17.32
64175;BMP280;50469;50.438;-119.202;2023-07-24T09:37:02;96578.03;;;16.90
64175;BMP280;50469;50.438;-119.202;2023-07-24T09:39:30;96580.16;;;16.43
64175;BMP280;50469;50.438;-119.202;2023-07-24T09:42:05;96583.66;;;16.77
64175;BMP280;50469;50.438;-119.202;2023-07-24T09:44:33;96583.31;;;16.51
64175;BMP280;50469;50.438;-119.202;2023-07-24T09:47:04;96594.63;;;16.13
64175;BMP280;50469;50.438;-119.202;2023-07-24T09:49:55;96580.66;;;16.14
64175;BMP280;50469;50.438;-119.202;2023-07-24T09:52:24;96587.00;;;16.63
64175;BMP280;50469;50.438;-119.202;2023-07-24T09:55:19;96590.41;;;16.82
64175;BMP280;50469;50.438;-119.202;2023-07-24T09:57:54;96591.28;;;16.88
64175;BMP280;50469;50.438;-119.202;2023-07-24T10:00:25;96590.19;;;16.52
64175;BMP280;50469;50.438;-119.202;2023-07-24T10:02:54;96601.75;;;16.62
64175;BMP280;50469;50.438;-119.202;2023-07-24T10:05:22;96597.38;;;15.26
64175;BMP280;50469;50.438;-119.202;2023-07-24T10:07:51;96614.41;;;16.10
64175;BMP280;50469;50.438;-119.202;2023-07-24T10:10:23;96610.22;;;16.09
64175;BMP280;50469;50.438;-119.202;2023-07-24T10:12:54;96608.72;;;16.17
64175;BMP280;50469;50.438;-119.202;2023-07-24T10:15:22;96610.22;;;16.79
64175;BMP280;50469;50.438;-119.202;2023-07-24T10:18:05;96608.25;;;16.46
64175;BMP280;50469;50.438;-119.202;2023-07-24T10:20:39;96614.59;;;16.06
64175;BMP280;50469;50.438;-119.202;2023-07-24T10:23:10;96610.06;;;16.40
64175;BMP280;50469;50.438;-119.202;2023-07-24T10:25:39;96613.50;;;15.58
64175;BMP280;50469;50.438;-119.202;2023-07-24T10:28:09;96615.63;;;16.18
64175;BMP280;50469;50.438;-119.202;2023-07-24T10:30:39;96610.97;;;16.28
64175;BMP280;50469;50.438;-119.202;2023-07-24T10:35:43;96603.91;;;16.39
64175;BMP280;50469;50.438;-119.202;2023-07-24T10:38:15;96609.41;;;16.54
64175;BMP280;50469;50.438;-119.202;2023-07-24T10:40:47;96613.44;;;16.59
64175;BMP280;50469;50.438;-119.202;2023-07-24T10:43:19;96618.09;;;16.58
64175;BMP280;50469;50.438;-119.202;2023-07-24T10:45:50;96616.38;;;15.82
64175;BMP280;50469;50.438;-119.202;2023-07-24T10:48:25;96617.56;;;15.99
64175;BMP280;50469;50.438;-119.202;2023-07-24T10:50:56;96614.56;;;15.11
64175;BMP280;50469;50.438;-119.202;2023-07-24T10:53:24;96611.88;;;15.69
64175;BMP280;50469;50.438;-119.202;2023-07-24T10:55:52;96613.78;;;15.01
64175;BMP280;50469;50.438;-119.202;2023-07-24T10:58:23;96607.63;;;15.41
64175;BMP280;50469;50.438;-119.202;2023-07-24T11:00:53;96609.63;;;15.77
64175;BMP280;50469;50.438;-119.202;2023-07-24T11:03:21;96622.41;;;15.27
64175;BMP280;50469;50.438;-119.202;2023-07-24T11:05:50;96611.38;;;15.03
64175;BMP280;50469;50.438;-119.202;2023-07-24T11:08:21;96623.84;;;15.68
64175;BMP280;50469;50.438;-119.202;2023-07-24T11:10:51;96622.91;;;15.35
64175;BMP280;50469;50.438;-119.202;2023-07-24T11:13:24;96623.81;;;15.59
64175;BMP280;50469;50.438;-119.202;2023-07-24T11:15:54;96626.84;;;15.70
64175;BMP280;50469;50.438;-119.202;2023-07-24T11:18:22;96622.09;;;15.25
64175;BMP280;50469;50.438;-119.202;2023-07-24T11:20:55;96627.59;;;15.52
64175;BMP280;50469;50.438;-119.202;2023-07-24T11:23:26;96626.72;;;16.02
64175;BMP280;50469;50.438;-119.202;2023-07-24T11:25:55;96633.03;;;15.89
64175;BMP280;50469;50.438;-119.202;2023-07-24T11:28:23;96638.13;;;15.87
64175;BMP280;50469;50.438;-119.202;2023-07-24T11:30:51;96642.13;;;15.64
64175;BMP280;50469;50.438;-119.202;2023-07-24T11:33:23;96636.06;;;15.33
64175;BMP280;50469;50.438;-119.202;2023-07-24T11:35:55;96643.63;;;15.56
64175;BMP280;50469;50.438;-119.202;2023-07-24T11:38:23;96643.66;;;15.84
64175;BMP280;50469;50.438;-119.202;2023-07-24T11:40:54;96641.41;;;15.82
64175;BMP280;50469;50.438;-119.202;2023-07-24T11:43:24;96648.66;;;15.36
64175;BMP280;50469;50.438;-119.202;2023-07-24T11:45:54;96656.53;;;14.90
64175;BMP280;50469;50.438;-119.202;2023-07-24T11:48:24;96650.91;;;14.97
64175;BMP280;50469;50.438;-119.202;2023-07-24T11:50:54;96665.84;;;14.45
64175;BMP280;50469;50.438;-119.202;2023-07-24T11:55:52;96675.88;;;14.44
64175;BMP280;50469;50.438;-119.202;2023-07-24T11:58:26;96668.78;;;14.37
64175;BMP280;50469;50.438;-119.202;2023-07-24T12:00:54;96672.88;;;14.64
64175;BMP280;50469;50.438;-119.202;2023-07-24T12:03:27;96674.78;;;14.42
64175;BMP280;50469;50.438;-119.202;2023-07-24T12:06:01;96677.38;;;14.45
64175;BMP280;50469;50.438;-119.202;2023-07-24T12:08:31;96679.69;;;14.78
64175;BMP280;50469;50.438;-119.202;2023-07-24T12:11:03;96676.41;;;15.14
64175;BMP280;50469;50.438;-119.202;2023-07-24T12:13:32;96675.50;;;15.08
64175;BMP280;50469;50.438;-119.202;2023-07-24T12:16:02;96682.22;;;15.03
64175;BMP280;50469;50.438;-119.202;2023-07-24T12:18:31;96692.66;;;15.23
64175;BMP280;50469;50.438;-119.202;2023-07-24T12:20:59;96678.13;;;15.21
64175;BMP280;50469;50.438;-119.202;2023-07-24T12:23:30;96675.22;;;15.06
64175;BMP280;50469;50.438;-119.202;2023-07-24T12:26:00;96687.97;;;14.83
64175;BMP280;50469;50.438;-119.202;2023-07-24T12:28:29;96687.88;;;15.27
64175;BMP280;50469;50.438;-119.202;2023-07-24T12:30:58;96691.16;;;14.91
64175;BMP280;50469;50.438;-119.202;2023-07-24T12:33:26;96688.75;;;15.24
64175;BMP280;50469;50.438;-119.202;2023-07-24T12:35:54;96695.75;;;15.13
64175;BMP280;50469;50.438;-119.202;2023-07-24T12:38:22;96699.50;;;15.46
64175;BMP280;50469;50.438;-119.202;2023-07-24T12:40:55;96699.84;;;15.58
64175;BMP280;50469;50.438;-119.202;2023-07-24T12:43:25;96705.75;;;15.43
64175;BMP280;50469;50.438;-119.202;2023-07-24T12:45:53;96705.88;;;15.31
64175;BMP280;50469;50.438;-119.202;2023-07-24T12:48:24;96708.56;;;15.31
64175;BMP280;50469;50.438;-119.202;2023-07-24T12:50:53;96718.81;;;15.14
64175;BMP280;50469;50.438;-119.202;2023-07-24T12:53:21;96712.56;;;15.26
64175;BMP280;50469;50.438;-119.202;2023-07-24T12:56:01;96723.66;;;15.50
64175;BMP280;50469;50.438;-119.202;2023-07-24T12:58:29;96716.38;;;15.38
64175;BMP280;50469;50.438;-119.202;2023-07-24T13:01:00;96714.97;;;15.24
64175;BMP280;50469;50.438;-119.202;2023-07-24T13:03:31;96717.69;;;15.24
64175;BMP280;50469;50.438;-119.202;2023-07-24T13:05:59;96721.03;;;15.37
64175;BMP280;50469;50.438;-119.202;2023-07-24T13:08:27;96721.09;;;15.46
64175;BMP280;50469;50.438;-119.202;2023-07-24T13:10:55;96717.47;;;15.40
64175;BMP280;50469;50.438;-119.202;2023-07-24T13:13:23;96726.41;;;15.37
64175;BMP280;50469;50.438;-119.202;2023-07-24T13:15:52;96725.38;;;15.84
64175;BMP280;50469;50.438;-119.202;2023-07-24T13:18:20;96722.59;;;15.97
64175;BMP280;50469;50.438;-119.202;2023-07-24T13:20:56;96733.13;;;17.20
64175;BMP280;50469;50.438;-119.202;2023-07-24T13:23:27;96738.91;;;18.57
64175;BMP280;50469;50.438;-119.202;2023-07-24T13:25:57;96739.41;;;18.70
64175;BMP280;50469;50.438;-119.202;2023-07-24T13:28:26;96744.47;;;19.78
64175;BMP280;50469;50.438;-119.202;2023-07-24T13:30:54;96748.69;;;21.03
64175;BMP280;50469;50.438;-119.202;2023-07-24T13:33:22;96757.97;;;22.36
64175;BMP280;50469;50.438;-119.202;2023-07-24T13:35:51;96755.22;;;21.60
64175;BMP280;50469;50.438;-119.202;2023-07-24T13:38:24;96762.91;;;20.87
64175;BMP280;50469;50.438;-119.202;2023-07-24T13:40:54;96759.38;;;22.04
64175;BMP280;50469;50.438;-119.202;2023-07-24T13:43:25;96752.81;;;22.83
64175;BMP280;50469;50.438;-119.202;2023-07-24T13:45:53;96765.72;;;24.27
64175;BMP280;50469;50.438;-119.202;2023-07-24T13:48:21;96764.97;;;22.99
64175;BMP280;50469;50.438;-119.202;2023-07-24T13:50:50;96767.44;;;22.52
64175;BMP280;50469;50.438;-119.202;2023-07-24T13:53:21;96773.16;;;22.82
64175;BMP280;50469;50.438;-119.202;2023-07-24T13:55:49;96769.66;;;24.98
64175;BMP280;50469;50.438;-119.202;2023-07-24T13:58:17;96767.97;;;25.19
64175;BMP280;50469;50.438;-119.202;2023-07-24T14:00:48;96773.88;;;25.72